Time;durP1;ratioP1;P1;durP2;ratioP2;P2;SDS_P1;SDS_P2;PMS_P1;PMS_P2;Temp;Humidity;BMP_temperature;BMP_pressure;BME280_temperature;BME280_humidity;BME280_pressure;Samples;Min_cycle;Max_cycle;Signal;HPM_P1;HPM_P2
2023/07/26 00:01:41;;;;;;;5.83;2.00;;;;;;;10.36;100.00;100313.44;6053219;28;20030;-67
2023/07/26 00:04:36;;;;;;;4.23;1.60;;;;;;;10.31;100.00;100322.81;6050299;28;20112;-67
2023/07/26 00:07:31;;;;;;;3.40;1.53;;;;;;;10.42;100.00;100333.19;6051200;28;20033;-67
2023/07/26 00:10:27;;;;;;;3.63;1.40;;;;;;;10.67;100.00;100322.59;6063065;28;20052;-67
2023/07/26 00:13:22;;;;;;;3.03;1.70;;;;;;;10.38;100.00;100326.53;6061021;28;20038;-67
2023/07/26 00:16:17;;;;;;;3.33;1.30;;;;;;;10.25;100.00;100311.03;6057970;28;20021;-66
2023/07/26 00:19:13;;;;;;;3.53;1.55;;;;;;;10.19;100.00;100335.50;6055171;28;20280;-66
2023/07/26 00:22:08;;;;;;;2.63;1.30;;;;;;;10.28;100.00;100336.38;6052764;28;20066;-66
2023/07/26 00:25:04;;;;;;;7.43;1.63;;;;;;;10.19;100.00;100322.25;6049983;28;20041;-66
2023/07/26 00:27:59;;;;;;;4.45;1.58;;;;;;;10.22;100.00;100324.56;6059426;28;20101;-66
2023/07/26 00:30:54;;;;;;;5.00;1.70;;;;;;;9.96;100.00;100321.00;6050448;28;20026;-66
2023/07/26 00:33:50;;;;;;;7.07;2.73;;;;;;;9.97;100.00;100330.63;6056365;28;20026;-66
2023/07/26 00:36:45;;;;;;;5.00;1.85;;;;;;;9.90;100.00;100338.34;6050452;28;20030;-66
2023/07/26 00:39:40;;;;;;;4.33;1.70;;;;;;;9.88;100.00;100324.44;6050222;28;20069;-66
2023/07/26 00:42:35;;;;;;;3.60;1.50;;;;;;;10.10;100.00;100345.16;6061562;28;20037;-66
2023/07/26 00:45:33;;;;;;;5.10;2.50;;;;;;;9.97;100.00;100333.28;6050630;28;20034;-66
2023/07/26 00:48:29;;;;;;;3.53;1.38;;;;;;;9.92;100.00;100335.56;6061991;28;20064;-66
2023/07/26 00:51:25;;;;;;;4.22;1.40;;;;;;;10.02;100.00;100344.25;6050275;28;20029;-66
2023/07/26 00:54:21;;;;;;;2.90;1.48;;;;;;;9.98;100.00;100332.28;6049114;28;20028;-66
2023/07/26 00:57:16;;;;;;;3.70;1.30;;;;;;;9.92;100.00;100330.25;6051103;28;20037;-65
2023/07/26 01:00:12;;;;;;;2.80;1.30;;;;;;;9.97;100.00;100351.81;6052389;28;20026;-65
2023/07/26 01:03:07;;;;;;;4.40;1.55;;;;;;;10.02;100.00;100357.50;6051122;28;20033;-65
2023/07/26 01:06:22;;;;;;;5.00;1.47;;;;;;;10.06;100.00;100353.53;6056984;28;20029;-64
2023/07/26 01:09:32;;;;;;;5.47;1.73;;;;;;;10.17;100.00;100358.66;6049899;28;20014;-65
2023/07/26 01:12:35;;;;;;;5.20;1.35;;;;;;;10.08;100.00;100356.91;6053311;28;20026;-65
2023/07/26 01:15:34;;;;;;;4.80;1.67;;;;;;;10.11;100.00;100365.34;6048077;28;20037;-64
2023/07/26 01:18:29;;;;;;;2.50;1.52;;;;;;;10.01;100.00;100355.81;6049683;28;20423;-65
2023/07/26 01:21:25;;;;;;;5.23;1.70;;;;;;;10.00;100.00;100346.22;6058222;28;20026;-66
2023/07/26 01:24:20;;;;;;;3.47;1.47;;;;;;;10.01;100.00;100363.78;6054348;28;20087;-65
2023/07/26 01:27:15;;;;;;;8.73;1.70;;;;;;;9.91;100.00;100345.31;6049535;28;20034;-66
2023/07/26 01:30:11;;;;;;;3.80;1.40;;;;;;;9.96;100.00;100366.88;6059972;28;20365;-65
2023/07/26 01:33:09;;;;;;;4.72;1.70;;;;;;;9.98;100.00;100353.47;6052367;28;20056;-65
2023/07/26 01:36:05;;;;;;;4.47;1.73;;;;;;;9.99;100.00;100363.09;6066909;28;20484;-65
2023/07/26 01:39:02;;;;;;;3.42;1.65;;;;;;;9.84;100.00;100348.69;6051251;28;20026;-66
2023/07/26 01:41:58;;;;;;;6.10;1.77;;;;;;;9.83;100.00;100349.69;6055080;28;20036;-67
2023/07/26 01:44:53;;;;;;;3.90;1.70;;;;;;;9.84;100.00;100344.22;6051083;28;20038;-65
2023/07/26 01:47:50;;;;;;;3.83;1.70;;;;;;;9.90;100.00;100342.81;6067248;28;20139;-65
2023/07/26 01:50:45;;;;;;;3.40;1.70;;;;;;;9.79;100.00;100350.97;6053986;28;20030;-65
2023/07/26 01:53:41;;;;;;;5.43;1.80;;;;;;;9.86;100.00;100352.03;6053599;28;20037;-65
2023/07/26 01:56:36;;;;;;;2.90;1.60;;;;;;;9.85;100.00;100358.31;6054105;28;20030;-64
2023/07/26 01:59:31;;;;;;;5.40;1.83;;;;;;;9.83;100.00;100347.03;6058358;28;20273;-65
2023/07/26 02:02:26;;;;;;;3.40;1.77;;;;;;;9.96;100.00;100374.00;6053786;28;20021;-65
2023/07/26 02:05:23;;;;;;;4.87;1.70;;;;;;;9.92;100.00;100367.34;6053290;28;20461;-65
2023/07/26 02:08:18;;;;;;;5.07;1.73;;;;;;;9.87;100.00;100361.63;6068106;28;20132;-65
2023/07/26 02:11:13;;;;;;;7.07;1.73;;;;;;;9.87;100.00;100359.81;6057051;28;20033;-65
2023/07/26 02:14:09;;;;;;;3.47;1.60;;;;;;;9.84;100.00;100354.81;6058639;28;20552;-65
2023/07/26 02:17:04;;;;;;;3.57;1.63;;;;;;;9.77;100.00;100352.94;6053668;28;20025;-65
2023/07/26 02:19:59;;;;;;;3.45;1.60;;;;;;;9.88;100.00;100374.75;6056646;28;20040;-65
2023/07/26 02:22:55;;;;;;;5.20;1.80;;;;;;;9.76;100.00;100352.09;6053424;28;20482;-65
2023/07/26 02:25:51;;;;;;;6.18;2.00;;;;;;;9.75;100.00;100365.50;6059142;28;20073;-65
2023/07/26 02:28:46;;;;;;;4.53;1.60;;;;;;;9.72;100.00;100366.63;6069386;28;20039;-66
2023/07/26 02:31:41;;;;;;;3.90;1.33;;;;;;;9.65;100.00;100360.25;6073979;28;20419;-65
2023/07/26 02:34:37;;;;;;;3.77;1.60;;;;;;;9.68;100.00;100364.41;6052461;28;20064;-65
2023/07/26 02:37:32;;;;;;;8.70;1.95;;;;;;;9.71;100.00;100358.81;6053285;28;20025;-65
2023/07/26 02:40:29;;;;;;;3.10;1.53;;;;;;;9.80;100.00;100384.41;6062706;28;20038;-65
2023/07/26 02:43:24;;;;;;;6.72;1.70;;;;;;;9.79;100.00;100383.56;6059197;28;20026;-65
2023/07/26 02:46:19;;;;;;;4.27;1.60;;;;;;;9.76;100.00;100372.44;6055120;28;20029;-65
2023/07/26 02:49:15;;;;;;;3.43;2.30;;;;;;;9.75;100.00;100368.16;6057615;28;20032;-66
2023/07/26 02:52:10;;;;;;;9.80;1.80;;;;;;;9.77;100.00;100360.88;6052925;28;20470;-65
2023/07/26 02:55:06;;;;;;;6.17;1.63;;;;;;;9.83;100.00;100362.94;6069403;28;20368;-65
2023/07/26 02:58:01;;;;;;;7.75;1.55;;;;;;;9.89;100.00;100365.78;6057544;28;20089;-65
2023/07/26 03:00:56;;;;;;;5.47;1.67;;;;;;;9.95;100.00;100385.56;6052475;28;20100;-65
2023/07/26 03:03:52;;;;;;;5.80;1.60;;;;;;;9.92;100.00;100383.22;6051772;28;20022;-65
2023/07/26 03:06:47;;;;;;;5.03;1.80;;;;;;;9.87;100.00;100374.88;6052876;28;20037;-65
2023/07/26 03:09:42;;;;;;;4.60;1.83;;;;;;;9.90;100.00;100374.59;6052173;28;20079;-65
2023/07/26 03:12:38;;;;;;;5.37;1.50;;;;;;;9.95;100.00;100377.59;6052313;28;20269;-65
2023/07/26 03:15:33;;;;;;;4.83;1.43;;;;;;;10.01;100.00;100377.00;6051647;28;20037;-65
2023/07/26 03:18:28;;;;;;;4.88;1.40;;;;;;;10.19;100.00;100396.44;6051929;28;20530;-65
2023/07/26 03:21:24;;;;;;;4.50;1.40;;;;;;;10.22;100.00;100380.22;6058222;28;20041;-65
2023/07/26 03:24:19;;;;;;;4.67;1.30;;;;;;;10.25;100.00;100377.28;6051573;28;20026;-65
2023/07/26 03:27:14;;;;;;;4.20;1.50;;;;;;;10.42;100.00;100387.03;6052299;28;20272;-65
2023/07/26 03:30:10;;;;;;;4.63;1.80;;;;;;;10.34;100.00;100375.53;6064387;28;20031;-65
2023/07/26 03:33:07;;;;;;;4.93;1.58;;;;;;;10.51;100.00;100402.03;6051772;28;20022;-65
2023/07/26 03:36:03;;;;;;;7.32;1.58;;;;;;;10.43;100.00;100372.81;6051158;28;20030;-64
2023/07/26 03:38:58;;;;;;;3.97;1.55;;;;;;;10.58;100.00;100392.47;6050608;28;20041;-66
2023/07/26 03:41:54;;;;;;;3.60;1.40;;;;;;;10.56;100.00;100389.16;6051945;28;20034;-66
2023/07/26 03:44:49;;;;;;;5.03;1.50;;;;;;;10.73;100.00;100401.53;6059905;28;20022;-66
2023/07/26 03:47:44;;;;;;;6.00;1.57;;;;;;;10.70;100.00;100382.47;6072812;28;20052;-67
2023/07/26 03:50:39;;;;;;;5.13;1.23;;;;;;;10.75;100.00;100386.31;6051428;28;20414;-66
2023/07/26 03:53:35;;;;;;;4.20;1.30;;;;;;;10.80;100.00;100385.00;6049048;28;20054;-67
2023/07/26 03:56:30;;;;;;;6.33;1.33;;;;;;;10.91;100.00;100408.63;6051572;28;20029;-66
2023/07/26 03:59:25;;;;;;;2.50;1.23;;;;;;;10.92;100.00;100404.97;6055069;28;20030;-66
2023/07/26 04:02:21;;;;;;;5.60;1.50;;;;;;;10.95;100.00;100402.03;6051402;28;20034;-66
2023/07/26 04:05:18;;;;;;;2.23;1.20;;;;;;;10.99;100.00;100409.50;6050923;28;20388;-67
2023/07/26 04:08:13;;;;;;;4.85;1.95;;;;;;;11.13;100.00;100416.91;6072529;28;20021;-66
2023/07/26 04:11:11;;;;;;;5.80;1.83;;;;;;;11.14;100.00;100409.78;6055299;28;20030;-66
2023/07/26 04:14:06;;;;;;;5.90;1.40;;;;;;;11.15;100.00;100395.50;6050142;28;20042;-68
2023/07/26 04:17:01;;;;;;;9.07;1.53;;;;;;;11.38;100.00;100398.44;6051059;28;20080;-65
2023/07/26 04:19:57;;;;;;;7.53;1.63;;;;;;;11.39;100.00;100414.19;6055421;28;20025;-66
2023/07/26 04:22:52;;;;;;;5.37;1.30;;;;;;;11.41;100.00;100395.47;6051088;28;20417;-65
2023/07/26 04:25:49;;;;;;;4.70;1.43;;;;;;;11.39;100.00;100413.41;6057936;28;20055;-66
2023/07/26 04:28:45;;;;;;;4.18;1.30;;;;;;;11.43;100.00;100420.03;6057149;28;20381;-66
2023/07/26 04:31:40;;;;;;;3.87;1.53;;;;;;;11.45;100.00;100412.72;6050999;28;20034;-66
2023/07/26 04:34:35;;;;;;;4.77;1.57;;;;;;;11.56;100.00;100417.75;6049922;28;20252;-66
2023/07/26 04:37:30;;;;;;;4.50;1.27;;;;;;;11.54;100.00;100409.97;6050544;28;20556;-67
2023/07/26 04:40:26;;;;;;;4.30;1.60;;;;;;;11.69;100.00;100428.81;6050286;28;20071;-66
2023/07/26 04:43:21;;;;;;;5.63;1.60;;;;;;;11.64;100.00;100418.63;6052084;28;20034;-67
2023/07/26 04:46:16;;;;;;;5.05;1.40;;;;;;;11.73;100.00;100425.69;6053553;28;20147;-65
2023/07/26 04:49:12;;;;;;;5.37;1.70;;;;;;;11.66;100.00;100416.66;6071087;28;20038;-67
2023/07/26 04:52:07;;;;;;;5.27;1.60;;;;;;;11.78;100.00;100423.38;6073695;28;20034;-67
2023/07/26 04:55:07;;;;;;;4.55;1.50;;;;;;;11.98;100.00;100441.72;6052543;28;20067;-65
2023/07/26 04:58:02;;;;;;;3.20;1.40;;;;;;;11.94;100.00;100431.41;6049877;28;20029;-65
2023/07/26 05:00:58;;;;;;;5.60;1.23;;;;;;;11.94;100.00;100426.09;6054542;28;20033;-65
2023/07/26 05:03:53;;;;;;;5.28;1.40;;;;;;;12.07;100.00;100446.88;6049607;28;20025;-65
2023/07/26 05:06:48;;;;;;;4.13;1.83;;;;;;;12.09;100.00;100439.59;6062298;28;20034;-65
2023/07/26 05:09:44;;;;;;;5.77;1.70;;;;;;;12.04;100.00;100427.78;6050155;28;20073;-65
2023/07/26 05:12:39;;;;;;;2.93;1.20;;;;;;;12.13;100.00;100440.06;6049429;28;20042;-65
2023/07/26 05:15:34;;;;;;;6.07;2.03;;;;;;;12.32;99.77;100458.41;6055839;28;20378;-65
2023/07/26 05:18:30;;;;;;;6.50;2.00;;;;;;;12.28;99.29;100449.09;6058092;28;20104;-65
2023/07/26 05:21:25;;;;;;;3.77;1.77;;;;;;;12.33;99.46;100444.13;6049652;28;20088;-65
2023/07/26 05:24:20;;;;;;;5.47;1.40;;;;;;;12.52;98.33;100451.78;6054807;28;20094;-66
2023/07/26 05:27:16;;;;;;;4.93;1.70;;;;;;;12.46;97.89;100444.47;6054204;28;20029;-65
2023/07/26 05:30:11;;;;;;;3.03;1.37;;;;;;;12.62;97.09;100449.78;6052439;28;20409;-65
2023/07/26 05:33:07;;;;;;;6.90;1.90;;;;;;;12.67;96.48;100449.28;6049570;28;20523;-66
2023/07/26 05:36:02;;;;;;;3.30;1.55;;;;;;;12.66;96.67;100458.28;6048865;28;20021;-66
2023/07/26 05:38:58;;;;;;;3.45;1.30;;;;;;;12.70;97.07;100463.09;6049839;28;20033;-66
2023/07/26 05:41:53;;;;;;;3.70;1.67;;;;;;;12.70;97.19;100467.56;6049401;28;20037;-66
2023/07/26 05:44:48;;;;;;;5.53;1.70;;;;;;;12.58;96.74;100456.47;6053779;28;20033;-66
2023/07/26 05:47:43;;;;;;;5.40;1.47;;;;;;;12.49;97.32;100462.75;6053411;28;20420;-65
2023/07/26 05:50:39;;;;;;;7.20;1.73;;;;;;;12.63;96.84;100469.25;6053084;28;20033;-65
2023/07/26 05:53:34;;;;;;;4.00;1.70;;;;;;;12.54;97.53;100455.09;6058029;28;20038;-65
2023/07/26 05:56:29;;;;;;;6.47;1.60;;;;;;;12.69;96.97;100472.06;6049059;28;20292;-65
2023/07/26 05:59:25;;;;;;;4.57;1.70;;;;;;;12.76;97.28;100475.75;6056949;28;20040;-66
2023/07/26 06:02:20;;;;;;;2.73;1.43;;;;;;;12.84;97.38;100472.25;6049304;28;20042;-66
2023/07/26 06:05:15;;;;;;;9.10;2.10;;;;;;;12.74;96.45;100471.59;6049090;28;20363;-66
2023/07/26 06:08:11;;;;;;;6.63;1.60;;;;;;;13.02;96.19;100481.72;6049346;28;20347;-66
2023/07/26 06:11:06;;;;;;;6.47;1.70;;;;;;;12.97;96.28;100473.41;6056313;28;20281;-65
2023/07/26 06:14:01;;;;;;;6.40;1.73;;;;;;;13.10;95.71;100473.75;6048891;28;20026;-66
2023/07/26 06:16:57;;;;;;;5.70;1.97;;;;;;;13.13;94.58;100479.75;6060171;28;20033;-66
2023/07/26 06:19:52;;;;;;;4.23;1.33;;;;;;;13.26;95.49;100472.94;6061147;28;20041;-66
2023/07/26 06:22:47;;;;;;;6.30;1.60;;;;;;;13.60;95.00;100472.66;6056839;28;20368;-65
2023/07/26 06:25:42;;;;;;;4.47;1.60;;;;;;;14.16;93.16;100477.75;6048476;28;20059;-66
2023/07/26 06:28:38;;;;;;;3.23;1.50;;;;;;;14.38;88.79;100465.47;6054225;28;20057;-66
2023/07/26 06:31:33;;;;;;;5.40;1.70;;;;;;;14.24;88.61;100475.03;6062754;28;20096;-65
2023/07/26 06:34:28;;;;;;;8.03;1.90;;;;;;;14.32;88.80;100465.38;6063658;28;20084;-66
2023/07/26 06:37:24;;;;;;;3.40;1.60;;;;;;;14.37;89.16;100458.50;6054363;28;20030;-66
2023/07/26 06:40:19;;;;;;;3.63;1.60;;;;;;;14.20;89.09;100463.06;6052749;28;20272;-66
2023/07/26 06:43:14;;;;;;;3.93;1.60;;;;;;;14.33;90.84;100481.19;6065747;28;20038;-66
2023/07/26 06:46:10;;;;;;;3.38;1.50;;;;;;;14.32;89.65;100476.03;6052438;28;20030;-66
2023/07/26 06:49:05;;;;;;;5.40;1.90;;;;;;;14.42;88.17;100460.63;6076246;28;20040;-65
2023/07/26 06:52:00;;;;;;;3.60;1.83;;;;;;;14.72;86.36;100473.94;6059138;28;20612;-65
2023/07/26 06:54:56;;;;;;;4.03;1.80;;;;;;;14.49;87.59;100461.56;6051742;28;20276;-66
2023/07/26 06:57:52;;;;;;;4.77;1.63;;;;;;;14.48;88.09;100471.44;6052852;28;20033;-65
2023/07/26 07:00:47;;;;;;;4.25;1.65;;;;;;;14.55;89.32;100492.88;6059737;28;20488;-65
2023/07/26 07:03:42;;;;;;;4.27;2.07;;;;;;;14.68;88.23;100487.78;6052194;28;20036;-65
2023/07/26 07:06:37;;;;;;;5.83;1.90;;;;;;;14.71;87.51;100488.28;6052592;28;20030;-65
2023/07/26 07:09:33;;;;;;;3.00;1.60;;;;;;;15.12;86.34;100496.78;6072415;28;20033;-65
2023/07/26 07:12:28;;;;;;;8.40;1.80;;;;;;;15.01;86.23;100489.19;6052499;28;20546;-65
2023/07/26 07:15:23;;;;;;;4.60;1.63;;;;;;;15.06;86.27;100492.16;6051252;28;20030;-66
2023/07/26 07:18:19;;;;;;;3.73;1.70;;;;;;;15.40;84.53;100489.84;6051795;28;20041;-66
2023/07/26 07:21:14;;;;;;;3.35;1.52;;;;;;;15.39;84.05;100456.09;6052161;28;20013;-66
2023/07/26 07:24:09;;;;;;;2.73;1.40;;;;;;;15.81;82.76;100492.09;6054172;28;20058;-66
2023/07/26 07:27:06;;;;;;;4.00;1.63;;;;;;;15.80;82.88;100480.56;6059125;28;20037;-65
2023/07/26 07:30:01;;;;;;;7.50;1.45;;;;;;;16.15;82.59;100494.16;6059844;28;20108;-65
2023/07/26 07:32:56;;;;;;;5.45;1.67;;;;;;;16.12;80.16;100490.03;6052260;28;20538;-65
2023/07/26 07:35:52;;;;;;;4.47;1.83;;;;;;;16.02;81.12;100494.84;6051112;28;20446;-65
2023/07/26 07:38:47;;;;;;;5.57;1.53;;;;;;;16.25;80.45;100502.75;6051633;28;20072;-65
2023/07/26 07:41:42;;;;;;;4.63;1.70;;;;;;;16.75;77.22;100491.16;6051865;28;20030;-65
2023/07/26 07:44:38;;;;;;;5.07;1.50;;;;;;;16.77;77.37;100503.34;6056295;28;20034;-65
2023/07/26 07:47:33;;;;;;;4.83;1.30;;;;;;;16.64;77.44;100479.94;6051722;28;20485;-65
2023/07/26 07:50:28;;;;;;;3.83;1.10;;;;;;;16.35;78.46;100485.38;6055766;28;20357;-65
2023/07/26 07:53:23;;;;;;;2.20;1.30;;;;;;;16.50;77.53;100480.78;6050750;28;20359;-65
2023/07/26 07:56:19;;;;;;;4.00;1.30;;;;;;;17.27;73.44;100481.75;6051498;28;20129;-65
2023/07/26 07:59:14;;;;;;;3.80;1.50;;;;;;;17.37;72.70;100485.91;6054469;28;20109;-65
2023/07/26 08:02:09;;;;;;;2.87;1.40;;;;;;;17.64;71.48;100482.41;6060833;28;20030;-65
2023/07/26 08:05:05;;;;;;;4.57;1.40;;;;;;;18.04;71.55;100491.50;6050689;28;20045;-65
2023/07/26 08:08:00;;;;;;;4.90;1.70;;;;;;;16.84;80.67;100508.78;6051030;28;20273;-64
2023/07/26 08:10:55;;;;;;;3.10;1.40;;;;;;;14.86;90.51;100499.00;6050913;28;20053;-62
2023/07/26 08:13:51;;;;;;;3.57;1.47;;;;;;;13.82;99.47;100495.06;6050265;28;20393;-62
2023/07/26 08:16:46;;;;;;;4.17;1.63;;;;;;;13.39;100.00;100499.03;6051281;28;20045;-62
2023/07/26 08:19:41;;;;;;;8.30;1.67;;;;;;;13.29;100.00;100522.34;6050752;28;20064;-63
2023/07/26 08:22:37;;;;;;;4.50;2.00;;;;;;;13.19;100.00;100514.53;6050929;28;20034;-63
2023/07/26 08:25:32;;;;;;;4.38;1.90;;;;;;;13.13;100.00;100516.03;6057694;28;20284;-63
2023/07/26 08:28:28;;;;;;;3.87;2.00;;;;;;;13.19;100.00;100508.34;6074229;28;20535;-64
2023/07/26 08:31:23;;;;;;;7.07;2.37;;;;;;;13.13;100.00;100503.72;6060342;28;21000;-64
2023/07/26 08:34:18;;;;;;;3.43;1.77;;;;;;;13.17;100.00;100499.72;6060807;28;20056;-64
2023/07/26 08:37:14;;;;;;;3.10;2.00;;;;;;;13.39;100.00;100515.84;6064176;28;20034;-64
2023/07/26 08:40:10;;;;;;;3.03;1.80;;;;;;;13.52;100.00;100496.66;6054927;28;20080;-65
2023/07/26 08:43:05;;;;;;;5.13;1.80;;;;;;;13.76;100.00;100509.91;6050020;28;20620;-65
2023/07/26 08:46:01;;;;;;;4.03;2.07;;;;;;;14.17;100.00;100498.09;6047058;28;20042;-65
2023/07/26 08:48:57;;;;;;;5.22;1.95;;;;;;;14.97;100.00;100509.28;6069374;28;20029;-65
2023/07/26 08:51:52;;;;;;;4.60;2.08;;;;;;;15.93;100.00;100502.13;6045365;28;20461;-65
2023/07/26 08:54:48;;;;;;;4.50;1.67;;;;;;;16.20;100.00;100494.47;6048269;28;20037;-65
2023/07/26 08:57:43;;;;;;;4.10;1.65;;;;;;;17.04;100.00;100489.16;6052240;28;20045;-66
2023/07/26 09:00:39;;;;;;;2.47;1.37;;;;;;;17.05;94.98;100480.13;6046029;28;20143;-65
2023/07/26 09:03:35;;;;;;;2.60;1.48;;;;;;;17.40;91.10;100481.00;6045557;28;20540;-65
2023/07/26 09:06:37;;;;;;;4.38;1.23;;;;;;;17.40;89.48;100480.16;6062675;28;20045;-65
2023/07/26 09:09:33;;;;;;;3.70;1.30;;;;;;;17.27;87.76;100483.59;6063184;28;20111;-65
2023/07/26 09:12:29;;;;;;;2.42;1.30;;;;;;;17.20;86.15;100490.75;6053340;28;20026;-66
2023/07/26 09:15:26;;;;;;;2.57;1.30;;;;;;;17.20;88.22;100488.06;6053591;28;20095;-65
2023/07/26 09:18:22;;;;;;;3.08;1.30;;;;;;;16.85;84.70;100499.72;6050012;28;20873;-66
2023/07/26 09:21:17;;;;;;;5.57;1.48;;;;;;;16.05;86.54;100494.47;6047160;28;20034;-65
2023/07/26 09:24:12;;;;;;;4.13;1.17;;;;;;;15.66;89.52;100494.75;6048518;28;20040;-65
2023/07/26 09:27:12;;;;;;;1.93;1.00;;;;;;;15.20;91.53;100482.50;6063557;28;20083;-65
2023/07/26 09:30:07;;;;;;;3.30;1.10;;;;;;;15.21;93.50;100494.88;6052667;28;20034;-66
2023/07/26 09:33:04;;;;;;;4.50;1.63;;;;;;;15.12;93.11;100480.75;6046202;28;20033;-66
2023/07/26 09:35:59;;;;;;;3.40;1.60;;;;;;;15.30;94.38;100491.94;6045801;28;20042;-66
2023/07/26 09:38:55;;;;;;;4.03;1.20;;;;;;;15.60;93.02;100502.69;6045835;28;20080;-66
2023/07/26 09:41:55;;;;;;;3.40;1.00;;;;;;;16.35;89.44;100495.25;6051204;28;20036;-66
2023/07/26 09:44:57;;;;;;;2.42;0.70;;;;;;;16.54;77.59;100492.81;6044521;28;20026;-66
2023/07/26 09:48:06;;;;;;;1.92;0.60;;;;;;;16.27;76.91;100477.47;6046082;28;20038;-66
2023/07/26 09:51:05;;;;;;;1.65;0.70;;;;;;;16.00;76.86;100479.00;6054460;28;20029;-66
2023/07/26 09:54:00;;;;;;;1.63;0.68;;;;;;;15.77;76.86;100478.25;6045226;28;20045;-66
2023/07/26 09:56:56;;;;;;;1.20;0.68;;;;;;;16.03;76.29;100499.19;6046257;28;20046;-66
2023/07/26 09:59:53;;;;;;;1.50;0.63;;;;;;;16.45;78.57;100493.91;6054234;28;20137;-67
2023/07/26 10:02:57;;;;;;;1.35;0.80;;;;;;;16.57;74.84;100481.75;6063330;28;20021;-65
2023/07/26 10:05:53;;;;;;;1.15;0.80;;;;;;;16.63;75.13;100482.81;6064496;28;20117;-66
2023/07/26 10:08:48;;;;;;;1.08;0.70;;;;;;;16.75;74.11;100475.91;6052598;28;20041;-68
2023/07/26 10:11:44;;;;;;;2.63;0.80;;;;;;;17.28;75.87;100478.00;6062331;28;20025;-67
2023/07/26 10:14:39;;;;;;;3.15;0.70;;;;;;;17.61;71.68;100467.53;6052480;28;20101;-66
2023/07/26 10:17:35;;;;;;;2.95;1.02;;;;;;;18.01;71.52;100462.38;6052999;28;20402;-66
2023/07/26 10:20:30;;;;;;;2.08;0.90;;;;;;;18.31;67.70;100463.72;6051778;28;20073;-65
2023/07/26 10:23:26;;;;;;;2.00;1.00;;;;;;;18.73;66.33;100451.84;6051890;28;20040;-65
2023/07/26 10:26:22;;;;;;;2.58;1.00;;;;;;;18.89;63.65;100432.63;6053350;28;20476;-66
2023/07/26 10:29:17;;;;;;;3.97;1.10;;;;;;;19.44;61.70;100439.44;6052720;28;20030;-65
2023/07/26 10:32:13;;;;;;;4.97;1.20;;;;;;;19.84;61.95;100432.91;6053053;28;20026;-65
2023/07/26 10:35:09;;;;;;;1.98;0.90;;;;;;;20.20;59.42;100441.22;6052299;28;20034;-66
2023/07/26 10:38:04;;;;;;;3.00;1.30;;;;;;;19.34;62.21;100439.03;6052756;28;20480;-65
2023/07/26 10:41:20;;;;;;;2.27;1.17;;;;;;;18.63;67.31;100441.53;6056918;28;20022;-65
2023/07/26 10:44:15;;;;;;;3.15;1.20;;;;;;;18.71;65.46;100433.25;6052039;28;20281;-66
2023/07/26 10:47:10;;;;;;;4.33;1.27;;;;;;;19.02;67.70;100436.16;6052855;28;20087;-66
2023/07/26 10:50:06;;;;;;;2.90;1.10;;;;;;;19.61;65.32;100413.75;6052331;28;20283;-66
2023/07/26 10:53:32;;;;;;;3.70;1.23;;;;;;;19.93;60.26;100426.25;6052599;28;20087;-67
2023/07/26 10:56:31;;;;;;;2.60;1.30;;;;;;;19.95;58.47;100432.22;6050929;28;20036;-67
2023/07/26 10:59:27;;;;;;;2.25;0.98;;;;;;;19.32;58.89;100424.97;6056411;28;20554;-67
2023/07/26 11:02:33;;;;;;;2.90;1.20;;;;;;;19.09;60.35;100435.31;6062047;28;20022;-66
2023/07/26 11:05:29;;;;;;;;;;;;;;;18.52;62.14;100441.28;6059232;28;20296;-66
2023/07/26 11:08:42;;;;;;;5.65;1.58;;;;;;;17.71;69.41;100448.41;6052875;28;19915;-66
2023/07/26 11:12:03;;;;;;;4.28;1.38;;;;;;;16.95;76.32;100443.97;6062266;28;20041;-66
2023/07/26 11:14:59;;;;;;;2.42;1.50;;;;;;;16.63;81.07;100446.13;6064055;28;20021;-65
2023/07/26 11:17:54;;;;;;;2.60;1.50;;;;;;;16.53;81.92;100459.03;6051960;28;20030;-66
2023/07/26 11:20:52;;;;;;;5.30;1.63;;;;;;;16.88;79.66;100437.69;6052771;28;20021;-66
2023/07/26 11:23:47;;;;;;;3.80;1.17;;;;;;;18.11;75.28;100452.94;6051472;28;20040;-66
2023/07/26 11:26:44;;;;;;;3.03;1.60;;;;;;;18.87;65.84;100448.97;6052102;28;20029;-66
2023/07/26 11:29:39;;;;;;;3.00;1.13;;;;;;;19.70;59.39;100425.94;6057682;28;20037;-66
2023/07/26 11:32:42;;;;;;;2.93;1.33;;;;;;;20.08;56.47;100434.88;6053346;28;20034;-66
2023/07/26 11:35:42;;;;;;;2.72;1.08;;;;;;;19.27;58.32;100439.03;6055631;28;20097;-66
2023/07/26 11:38:43;;;;;;;4.93;1.35;;;;;;;18.68;63.39;100452.47;6052589;28;20064;-66
2023/07/26 11:41:41;;;;;;;2.70;1.17;;;;;;;18.32;65.94;100454.63;6052051;28;20022;-66
2023/07/26 11:44:37;;;;;;;3.20;1.30;;;;;;;18.12;66.71;100453.75;6050924;28;20109;-66
2023/07/26 11:47:34;;;;;;;3.57;0.93;;;;;;;18.11;63.04;100466.34;6056687;28;20044;-66
2023/07/26 11:50:29;;;;;;;2.25;1.00;;;;;;;18.44;60.60;100467.28;6052247;28;20116;-66
2023/07/26 11:53:29;;;;;;;3.50;0.90;;;;;;;18.99;59.21;100447.34;6050986;28;20588;-65
2023/07/26 11:56:31;;;;;;;2.17;1.25;;;;;;;19.51;57.35;100449.13;6052509;28;20280;-66
2023/07/26 11:59:26;;;;;;;1.83;1.00;;;;;;;19.70;57.94;100449.31;6051507;28;20469;-66
2023/07/26 12:02:23;;;;;;;3.60;1.10;;;;;;;20.07;56.53;100462.84;6051283;28;20112;-66
2023/07/26 12:05:19;;;;;;;1.77;0.98;;;;;;;19.81;52.86;100449.47;6052855;28;20034;-66
2023/07/26 12:08:15;;;;;;;1.58;0.82;;;;;;;19.81;54.06;100448.66;6057175;28;20052;-66
2023/07/26 12:11:10;;;;;;;1.25;0.80;;;;;;;19.70;53.28;100452.84;6050875;28;20026;-65
2023/07/26 12:14:06;;;;;;;2.17;1.10;;;;;;;19.62;52.91;100457.63;6050452;28;20491;-66
2023/07/26 12:17:01;;;;;;;1.73;1.00;;;;;;;19.65;52.06;100452.63;6051169;28;20073;-66
2023/07/26 12:20:03;;;;;;;2.33;1.33;;;;;;;19.56;52.44;100445.84;6050882;28;20287;-66
2023/07/26 12:23:00;;;;;;;4.55;1.40;;;;;;;19.16;54.98;100458.47;6057444;28;20527;-66
2023/07/26 12:26:00;;;;;;;1.85;1.00;;;;;;;18.61;57.92;100470.44;6050237;28;20381;-66
2023/07/26 12:28:58;;;;;;;2.95;1.00;;;;;;;18.27;59.22;100462.47;6050027;28;20523;-66
2023/07/26 12:32:02;;;;;;;2.95;1.02;;;;;;;18.50;60.79;100454.09;6053433;28;20136;-66
2023/07/26 12:34:58;;;;;;;2.58;1.00;;;;;;;18.65;59.52;100452.88;6050066;28;20037;-66
2023/07/26 12:37:53;;;;;;;2.57;1.27;;;;;;;18.75;57.88;100455.97;6050785;28;20034;-66
2023/07/26 12:40:50;;;;;;;7.83;1.97;;;;;;;18.99;57.50;100452.72;6050487;28;20033;-66
2023/07/26 12:43:51;;;;;;;1.40;0.90;;;;;;;19.69;54.57;100458.41;6049840;28;20308;-66
2023/07/26 12:46:47;;;;;;;2.97;1.10;;;;;;;20.15;53.54;100459.06;6050209;28;20050;-66
2023/07/26 12:49:42;;;;;;;2.30;1.08;;;;;;;20.42;52.35;100451.72;6050604;28;20060;-66
2023/07/26 12:52:40;;;;;;;4.47;1.30;;;;;;;21.02;51.47;100453.78;6050224;28;20034;-66
2023/07/26 12:55:37;;;;;;;2.38;1.10;;;;;;;20.92;49.00;100439.13;6050071;28;20025;-66
2023/07/26 12:58:32;;;;;;;2.55;1.10;;;;;;;21.28;50.02;100456.25;6058914;28;20117;-67
2023/07/26 13:01:28;;;;;;;2.97;1.27;;;;;;;20.66;49.54;100445.53;6050054;28;20026;-66
2023/07/26 13:04:23;;;;;;;3.80;1.30;;;;;;;21.11;50.61;100457.88;6052342;28;20025;-67
2023/07/26 13:07:18;;;;;;;3.20;1.47;;;;;;;21.44;50.35;100449.47;6049983;28;20091;-66
2023/07/26 13:10:13;;;;;;;4.53;1.40;;;;;;;21.33;50.37;100456.41;6050413;28;20025;-66
2023/07/26 13:13:09;;;;;;;3.63;1.45;;;;;;;21.28;49.62;100445.47;6054499;28;20080;-66
2023/07/26 13:16:04;;;;;;;2.53;1.20;;;;;;;21.34;49.54;100449.97;6049092;28;20033;-66
2023/07/26 13:19:03;;;;;;;3.20;1.38;;;;;;;21.30;49.60;100448.78;6053400;28;20064;-66
2023/07/26 13:21:58;;;;;;;2.55;1.20;;;;;;;21.59;50.40;100431.03;6049843;28;20053;-66
2023/07/26 13:24:53;;;;;;;3.57;1.50;;;;;;;21.46;49.58;100446.53;6072081;28;20401;-66
2023/07/26 13:27:49;;;;;;;3.73;1.43;;;;;;;20.96;49.92;100440.34;6050003;28;20036;-67
2023/07/26 13:30:44;;;;;;;2.90;1.30;;;;;;;20.19;52.05;100439.56;6066035;28;20029;-66
2023/07/26 13:33:39;;;;;;;2.87;1.30;;;;;;;20.28;52.23;100436.66;6054702;28;20423;-66
2023/07/26 13:36:35;;;;;;;4.20;1.50;;;;;;;20.47;51.65;100447.31;6049278;28;20281;-66
2023/07/26 13:39:30;;;;;;;4.70;1.30;;;;;;;20.35;51.64;100418.59;6050113;28;20531;-68